sensor_id;sensor_type;location;lat;lon;timestamp;P1;durP1;ratioP1;P2;durP2;ratioP2
53261;SDS011;39658;51.090;-1.786;2023-02-08T00:00:52;6.13;;;2.50;;
53261;SDS011;39658;51.090;-1.786;2023-02-08T00:03:19;5.53;;;2.35;;
53261;SDS011;39658;51.090;-1.786;2023-02-08T00:05:46;5.90;;;2.38;;
53261;SDS011;39658;51.090;-1.786;2023-02-08T00:08:13;5.60;;;2.58;;
53261;SDS011;39658;51.090;-1.786;2023-02-08T00:10:40;6.47;;;2.20;;
53261;SDS011;39658;51.090;-1.786;2023-02-08T00:13:07;5.88;;;2.25;;
53261;SDS011;39658;51.090;-1.786;2023-02-08T00:15:34;5.90;;;2.60;;
53261;SDS011;39658;51.090;-1.786;2023-02-08T00:18:07;7.80;;;2.53;;
53261;SDS011;39658;51.090;-1.786;2023-02-08T00:20:34;6.20;;;2.42;;
53261;SDS011;39658;51.090;-1.786;2023-02-08T00:23:00;5.88;;;2.30;;
53261;SDS011;39658;51.090;-1.786;2023-02-08T00:25:27;5.50;;;2.30;;
53261;SDS011;39658;51.090;-1.786;2023-02-08T00:27:55;6.47;;;2.40;;
53261;SDS011;39658;51.090;-1.786;2023-02-08T00:30:22;5.07;;;2.20;;
53261;SDS011;39658;51.090;-1.786;2023-02-08T00:32:48;6.72;;;2.58;;
53261;SDS011;39658;51.090;-1.786;2023-02-08T00:35:17;6.07;;;2.53;;
53261;SDS011;39658;51.090;-1.786;2023-02-08T00:37:43;6.35;;;2.50;;
53261;SDS011;39658;51.090;-1.786;2023-02-08T00:40:10;7.07;;;2.80;;
53261;SDS011;39658;51.090;-1.786;2023-02-08T00:42:37;5.90;;;2.28;;
53261;SDS011;39658;51.090;-1.786;2023-02-08T00:45:04;5.93;;;2.63;;
53261;SDS011;39658;51.090;-1.786;2023-02-08T00:47:31;7.82;;;2.83;;
53261;SDS011;39658;51.090;-1.786;2023-02-08T00:49:58;6.90;;;2.65;;
53261;SDS011;39658;51.090;-1.786;2023-02-08T00:52:27;7.43;;;2.50;;
53261;SDS011;39658;51.090;-1.786;2023-02-08T00:54:54;6.18;;;2.65;;
53261;SDS011;39658;51.090;-1.786;2023-02-08T00:57:21;5.78;;;2.50;;
53261;SDS011;39658;51.090;-1.786;2023-02-08T00:59:48;5.90;;;2.78;;
53261;SDS011;39658;51.090;-1.786;2023-02-08T01:02:14;7.20;;;2.85;;
53261;SDS011;39658;51.090;-1.786;2023-02-08T01:04:41;5.40;;;2.42;;
53261;SDS011;39658;51.090;-1.786;2023-02-08T01:07:08;5.75;;;2.60;;
53261;SDS011;39658;51.090;-1.786;2023-02-08T01:09:36;6.47;;;2.60;;
53261;SDS011;39658;51.090;-1.786;2023-02-08T01:12:03;6.35;;;2.67;;
53261;SDS011;39658;51.090;-1.786;2023-02-08T01:14:30;6.93;;;2.70;;
53261;SDS011;39658;51.090;-1.786;2023-02-08T01:16:57;6.60;;;2.78;;
53261;SDS011;39658;51.090;-1.786;2023-02-08T01:19:24;5.10;;;2.17;;
53261;SDS011;39658;51.090;-1.786;2023-02-08T01:21:51;6.28;;;2.65;;
53261;SDS011;39658;51.090;-1.786;2023-02-08T01:24:18;5.65;;;2.53;;
53261;SDS011;39658;51.090;-1.786;2023-02-08T01:26:46;7.25;;;2.55;;
53261;SDS011;39658;51.090;-1.786;2023-02-08T01:29:13;5.80;;;2.47;;
53261;SDS011;39658;51.090;-1.786;2023-02-08T01:31:40;7.65;;;2.40;;
53261;SDS011;39658;51.090;-1.786;2023-02-08T01:34:08;5.60;;;2.50;;
53261;SDS011;39658;51.090;-1.786;2023-02-08T01:36:36;6.18;;;2.58;;
53261;SDS011;39658;51.090;-1.786;2023-02-08T01:39:04;6.60;;;3.05;;
53261;SDS011;39658;51.090;-1.786;2023-02-08T01:41:33;6.03;;;2.38;;
53261;SDS011;39658;51.090;-1.786;2023-02-08T01:44:04;8.20;;;3.00;;
53261;SDS011;39658;51.090;-1.786;2023-02-08T01:46:33;5.72;;;2.67;;
53261;SDS011;39658;51.090;-1.786;2023-02-08T01:49:02;6.30;;;2.72;;
53261;SDS011;39658;51.090;-1.786;2023-02-08T01:51:34;6.82;;;2.67;;
53261;SDS011;39658;51.090;-1.786;2023-02-08T01:54:05;5.90;;;2.58;;
53261;SDS011;39658;51.090;-1.786;2023-02-08T01:56:35;5.45;;;2.55;;
53261;SDS011;39658;51.090;-1.786;2023-02-08T01:59:07;6.07;;;2.58;;
53261;SDS011;39658;51.090;-1.786;2023-02-08T02:01:39;7.30;;;2.92;;
53261;SDS011;39658;51.090;-1.786;2023-02-08T02:04:07;6.28;;;2.67;;
53261;SDS011;39658;51.090;-1.786;2023-02-08T02:06:34;6.53;;;2.85;;
53261;SDS011;39658;51.090;-1.786;2023-02-08T02:09:09;6.10;;;2.58;;
53261;SDS011;39658;51.090;-1.786;2023-02-08T02:11:46;6.35;;;2.60;;
53261;SDS011;39658;51.090;-1.786;2023-02-08T02:14:16;5.72;;;2.38;;
53261;SDS011;39658;51.090;-1.786;2023-02-08T02:16:43;6.07;;;2.53;;
53261;SDS011;39658;51.090;-1.786;2023-02-08T02:19:12;6.55;;;2.70;;
53261;SDS011;39658;51.090;-1.786;2023-02-08T02:21:53;6.40;;;2.55;;
53261;SDS011;39658;51.090;-1.786;2023-02-08T02:24:44;6.10;;;2.33;;
53261;SDS011;39658;51.090;-1.786;2023-02-08T02:27:39;5.47;;;2.33;;
53261;SDS011;39658;51.090;-1.786;2023-02-08T02:30:56;6.38;;;2.55;;
53261;SDS011;39658;51.090;-1.786;2023-02-08T02:33:49;5.15;;;2.05;;
53261;SDS011;39658;51.090;-1.786;2023-02-08T02:36:24;5.87;;;2.50;;
53261;SDS011;39658;51.090;-1.786;2023-02-08T02:39:02;5.78;;;2.47;;
53261;SDS011;39658;51.090;-1.786;2023-02-08T02:41:38;5.20;;;2.25;;
53261;SDS011;39658;51.090;-1.786;2023-02-08T02:44:29;6.65;;;2.88;;
53261;SDS011;39658;51.090;-1.786;2023-02-08T02:47:04;6.30;;;2.67;;
53261;SDS011;39658;51.090;-1.786;2023-02-08T02:49:41;6.28;;;2.80;;
53261;SDS011;39658;51.090;-1.786;2023-02-08T02:52:14;6.97;;;3.05;;
53261;SDS011;39658;51.090;-1.786;2023-02-08T02:54:45;6.82;;;2.58;;
53261;SDS011;39658;51.090;-1.786;2023-02-08T02:57:16;7.05;;;2.83;;
53261;SDS011;39658;51.090;-1.786;2023-02-08T02:59:46;7.43;;;2.88;;
53261;SDS011;39658;51.090;-1.786;2023-02-08T03:02:13;5.90;;;2.40;;
53261;SDS011;39658;51.090;-1.786;2023-02-08T03:04:48;6.68;;;3.00;;
53261;SDS011;39658;51.090;-1.786;2023-02-08T03:07:22;7.25;;;2.60;;
53261;SDS011;39658;51.090;-1.786;2023-02-08T03:10:07;6.03;;;2.67;;
53261;SDS011;39658;51.090;-1.786;2023-02-08T03:12:48;6.00;;;2.38;;
53261;SDS011;39658;51.090;-1.786;2023-02-08T03:15:22;6.82;;;2.70;;
53261;SDS011;39658;51.090;-1.786;2023-02-08T03:18:01;5.55;;;2.50;;
53261;SDS011;39658;51.090;-1.786;2023-02-08T03:20:39;6.70;;;2.72;;
53261;SDS011;39658;51.090;-1.786;2023-02-08T03:23:08;5.88;;;2.60;;
53261;SDS011;39658;51.090;-1.786;2023-02-08T03:25:43;7.57;;;2.70;;
53261;SDS011;39658;51.090;-1.786;2023-02-08T03:28:17;6.55;;;2.60;;
53261;SDS011;39658;51.090;-1.786;2023-02-08T03:30:51;6.32;;;2.78;;
53261;SDS011;39658;51.090;-1.786;2023-02-08T03:33:24;6.43;;;2.63;;
53261;SDS011;39658;51.090;-1.786;2023-02-08T03:36:00;4.53;;;2.13;;
53261;SDS011;39658;51.090;-1.786;2023-02-08T03:38:32;5.93;;;2.75;;
53261;SDS011;39658;51.090;-1.786;2023-02-08T03:41:03;6.00;;;2.60;;
53261;SDS011;39658;51.090;-1.786;2023-02-08T03:43:36;6.47;;;2.60;;
53261;SDS011;39658;51.090;-1.786;2023-02-08T03:46:07;7.55;;;3.08;;
53261;SDS011;39658;51.090;-1.786;2023-02-08T03:48:37;6.80;;;2.75;;
53261;SDS011;39658;51.090;-1.786;2023-02-08T03:51:09;6.07;;;2.58;;
53261;SDS011;39658;51.090;-1.786;2023-02-08T03:53:37;7.57;;;2.92;;
53261;SDS011;39658;51.090;-1.786;2023-02-08T03:56:07;6.78;;;2.67;;
53261;SDS011;39658;51.090;-1.786;2023-02-08T03:58:39;6.70;;;2.80;;
53261;SDS011;39658;51.090;-1.786;2023-02-08T04:01:12;5.13;;;2.33;;
53261;SDS011;39658;51.090;-1.786;2023-02-08T04:03:43;6.43;;;2.60;;
53261;SDS011;39658;51.090;-1.786;2023-02-08T04:06:14;5.60;;;2.55;;
53261;SDS011;39658;51.090;-1.786;2023-02-08T04:08:41;6.43;;;2.55;;
53261;SDS011;39658;51.090;-1.786;2023-02-08T04:11:08;7.05;;;2.88;;
53261;SDS011;39658;51.090;-1.786;2023-02-08T04:13:34;6.35;;;2.85;;
53261;SDS011;39658;51.090;-1.786;2023-02-08T04:16:02;7.43;;;2.63;;
53261;SDS011;39658;51.090;-1.786;2023-02-08T04:18:29;6.40;;;2.92;;
53261;SDS011;39658;51.090;-1.786;2023-02-08T04:20:56;6.10;;;2.70;;
53261;SDS011;39658;51.090;-1.786;2023-02-08T04:23:24;6.07;;;2.60;;
53261;SDS011;39658;51.090;-1.786;2023-02-08T04:25:51;5.88;;;2.42;;
53261;SDS011;39658;51.090;-1.786;2023-02-08T04:28:17;5.60;;;2.53;;
53261;SDS011;39658;51.090;-1.786;2023-02-08T04:30:44;6.35;;;2.58;;
53261;SDS011;39658;51.090;-1.786;2023-02-08T04:33:11;6.07;;;2.72;;
53261;SDS011;39658;51.090;-1.786;2023-02-08T04:35:39;6.53;;;2.70;;
53261;SDS011;39658;51.090;-1.786;2023-02-08T04:38:06;6.00;;;2.72;;
53261;SDS011;39658;51.090;-1.786;2023-02-08T04:40:34;5.57;;;2.45;;
53261;SDS011;39658;51.090;-1.786;2023-02-08T04:43:01;6.00;;;2.63;;
53261;SDS011;39658;51.090;-1.786;2023-02-08T04:45:28;6.30;;;2.65;;
53261;SDS011;39658;51.090;-1.786;2023-02-08T04:47:56;6.32;;;2.58;;
53261;SDS011;39658;51.090;-1.786;2023-02-08T04:50:23;7.40;;;2.58;;
53261;SDS011;39658;51.090;-1.786;2023-02-08T04:52:50;6.18;;;2.58;;
53261;SDS011;39658;51.090;-1.786;2023-02-08T04:55:17;5.93;;;2.60;;
53261;SDS011;39658;51.090;-1.786;2023-02-08T04:57:45;5.88;;;2.70;;
53261;SDS011;39658;51.090;-1.786;2023-02-08T05:00:12;7.32;;;2.53;;
53261;SDS011;39658;51.090;-1.786;2023-02-08T05:02:39;5.57;;;2.42;;
53261;SDS011;39658;51.090;-1.786;2023-02-08T05:05:06;6.18;;;2.80;;
53261;SDS011;39658;51.090;-1.786;2023-02-08T05:07:33;5.40;;;2.35;;
53261;SDS011;39658;51.090;-1.786;2023-02-08T05:10:00;6.72;;;2.65;;
53261;SDS011;39658;51.090;-1.786;2023-02-08T05:12:27;6.00;;;2.60;;
53261;SDS011;39658;51.090;-1.786;2023-02-08T05:14:55;7.10;;;2.80;;
53261;SDS011;39658;51.090;-1.786;2023-02-08T05:17:22;5.63;;;2.40;;
53261;SDS011;39658;51.090;-1.786;2023-02-08T05:19:49;5.60;;;2.45;;
53261;SDS011;39658;51.090;-1.786;2023-02-08T05:22:16;6.53;;;2.50;;
53261;SDS011;39658;51.090;-1.786;2023-02-08T05:24:43;5.85;;;2.53;;
53261;SDS011;39658;51.090;-1.786;2023-02-08T05:27:10;6.22;;;2.60;;
53261;SDS011;39658;51.090;-1.786;2023-02-08T05:29:36;5.97;;;2.35;;
53261;SDS011;39658;51.090;-1.786;2023-02-08T05:32:05;6.28;;;2.47;;
53261;SDS011;39658;51.090;-1.786;2023-02-08T05:34:31;5.75;;;2.70;;
53261;SDS011;39658;51.090;-1.786;2023-02-08T05:36:58;5.45;;;2.42;;
53261;SDS011;39658;51.090;-1.786;2023-02-08T05:39:25;5.75;;;2.53;;
53261;SDS011;39658;51.090;-1.786;2023-02-08T05:41:52;6.15;;;2.60;;
53261;SDS011;39658;51.090;-1.786;2023-02-08T05:44:19;6.25;;;2.78;;
53261;SDS011;39658;51.090;-1.786;2023-02-08T05:46:46;6.13;;;2.90;;
53261;SDS011;39658;51.090;-1.786;2023-02-08T05:49:14;7.40;;;2.63;;
53261;SDS011;39658;51.090;-1.786;2023-02-08T05:51:41;6.43;;;2.60;;
53261;SDS011;39658;51.090;-1.786;2023-02-08T05:54:08;6.72;;;2.75;;
53261;SDS011;39658;51.090;-1.786;2023-02-08T05:56:36;5.57;;;2.47;;
53261;SDS011;39658;51.090;-1.786;2023-02-08T05:59:02;6.63;;;2.60;;
53261;SDS011;39658;51.090;-1.786;2023-02-08T06:01:29;5.72;;;2.40;;
53261;SDS011;39658;51.090;-1.786;2023-02-08T06:03:57;6.18;;;2.58;;
53261;SDS011;39658;51.090;-1.786;2023-02-08T06:06:25;6.25;;;2.40;;
53261;SDS011;39658;51.090;-1.786;2023-02-08T06:08:52;5.75;;;2.33;;
53261;SDS011;39658;51.090;-1.786;2023-02-08T06:11:19;6.25;;;2.63;;
53261;SDS011;39658;51.090;-1.786;2023-02-08T06:13:46;6.20;;;2.47;;
53261;SDS011;39658;51.090;-1.786;2023-02-08T06:16:13;6.88;;;2.38;;
53261;SDS011;39658;51.090;-1.786;2023-02-08T06:18:41;5.80;;;2.50;;
53261;SDS011;39658;51.090;-1.786;2023-02-08T06:21:07;5.93;;;2.40;;
53261;SDS011;39658;51.090;-1.786;2023-02-08T06:23:38;5.97;;;2.70;;
53261;SDS011;39658;51.090;-1.786;2023-02-08T06:26:05;5.45;;;2.40;;
53261;SDS011;39658;51.090;-1.786;2023-02-08T06:28:32;5.75;;;2.50;;
53261;SDS011;39658;51.090;-1.786;2023-02-08T06:30:59;5.03;;;2.30;;
53261;SDS011;39658;51.090;-1.786;2023-02-08T06:33:25;5.30;;;2.40;;
53261;SDS011;39658;51.090;-1.786;2023-02-08T06:35:52;5.85;;;2.33;;
53261;SDS011;39658;51.090;-1.786;2023-02-08T06:38:19;6.88;;;2.65;;
53261;SDS011;39658;51.090;-1.786;2023-02-08T06:40:48;6.85;;;2.60;;
53261;SDS011;39658;51.090;-1.786;2023-02-08T06:43:15;6.55;;;2.58;;
53261;SDS011;39658;51.090;-1.786;2023-02-08T06:45:43;5.88;;;2.40;;
53261;SDS011;39658;51.090;-1.786;2023-02-08T06:48:10;5.97;;;2.80;;
53261;SDS011;39658;51.090;-1.786;2023-02-08T06:50:37;6.07;;;2.20;;
53261;SDS011;39658;51.090;-1.786;2023-02-08T06:53:05;7.22;;;2.63;;
53261;SDS011;39658;51.090;-1.786;2023-02-08T06:55:32;5.20;;;2.38;;
53261;SDS011;39658;51.090;-1.786;2023-02-08T06:58:00;5.45;;;2.30;;
53261;SDS011;39658;51.090;-1.786;2023-02-08T07:00:27;5.07;;;2.30;;
53261;SDS011;39658;51.090;-1.786;2023-02-08T07:02:54;5.50;;;2.33;;
53261;SDS011;39658;51.090;-1.786;2023-02-08T07:05:21;6.05;;;2.47;;
53261;SDS011;39658;51.090;-1.786;2023-02-08T07:07:48;5.47;;;2.50;;
53261;SDS011;39658;51.090;-1.786;2023-02-08T07:10:15;5.82;;;2.63;;
53261;SDS011;39658;51.090;-1.786;2023-02-08T07:12:42;6.60;;;2.70;;
53261;SDS011;39658;51.090;-1.786;2023-02-08T07:15:10;5.78;;;2.65;;
53261;SDS011;39658;51.090;-1.786;2023-02-08T07:17:38;6.18;;;2.88;;
53261;SDS011;39658;51.090;-1.786;2023-02-08T07:20:05;5.93;;;2.55;;
53261;SDS011;39658;51.090;-1.786;2023-02-08T07:22:33;7.53;;;2.35;;
53261;SDS011;39658;51.090;-1.786;2023-02-08T07:25:00;5.18;;;2.40;;
53261;SDS011;39658;51.090;-1.786;2023-02-08T07:27:27;5.80;;;2.80;;
53261;SDS011;39658;51.090;-1.786;2023-02-08T07:29:54;5.65;;;2.40;;
53261;SDS011;39658;51.090;-1.786;2023-02-08T07:32:22;5.43;;;2.55;;
53261;SDS011;39658;51.090;-1.786;2023-02-08T07:34:49;6.18;;;2.75;;
53261;SDS011;39658;51.090;-1.786;2023-02-08T07:37:16;6.00;;;2.60;;
53261;SDS011;39658;51.090;-1.786;2023-02-08T07:39:43;5.90;;;2.78;;
53261;SDS011;39658;51.090;-1.786;2023-02-08T07:42:10;7.00;;;2.60;;
53261;SDS011;39658;51.090;-1.786;2023-02-08T07:44:37;5.75;;;2.80;;
53261;SDS011;39658;51.090;-1.786;2023-02-08T07:47:04;6.35;;;2.47;;
53261;SDS011;39658;51.090;-1.786;2023-02-08T07:49:33;6.63;;;2.40;;
53261;SDS011;39658;51.090;-1.786;2023-02-08T07:52:00;6.40;;;2.40;;
53261;SDS011;39658;51.090;-1.786;2023-02-08T07:54:27;6.18;;;2.55;;
53261;SDS011;39658;51.090;-1.786;2023-02-08T07:56:54;5.90;;;2.60;;
53261;SDS011;39658;51.090;-1.786;2023-02-08T07:59:21;5.93;;;2.60;;
53261;SDS011;39658;51.090;-1.786;2023-02-08T08:01:48;5.85;;;2.70;;
53261;SDS011;39658;51.090;-1.786;2023-02-08T08:04:15;5.68;;;2.53;;
53261;SDS011;39658;51.090;-1.786;2023-02-08T08:06:45;5.80;;;2.58;;
53261;SDS011;39658;51.090;-1.786;2023-02-08T08:09:13;6.13;;;2.70;;
53261;SDS011;39658;51.090;-1.786;2023-02-08T08:11:40;6.25;;;2.50;;
53261;SDS011;39658;51.090;-1.786;2023-02-08T08:14:07;5.70;;;2.60;;
53261;SDS011;39658;51.090;-1.786;2023-02-08T08:16:34;6.28;;;2.70;;
53261;SDS011;39658;51.090;-1.786;2023-02-08T08:19:01;5.60;;;2.70;;
53261;SDS011;39658;51.090;-1.786;2023-02-08T08:21:28;5.95;;;2.72;;
53261;SDS011;39658;51.090;-1.786;2023-02-08T08:23:56;6.07;;;2.42;;
53261;SDS011;39658;51.090;-1.786;2023-02-08T08:26:23;5.80;;;2.60;;
53261;SDS011;39658;51.090;-1.786;2023-02-08T08:28:50;5.45;;;2.58;;
53261;SDS011;39658;51.090;-1.786;2023-02-08T08:31:17;6.30;;;2.80;;
53261;SDS011;39658;51.090;-1.786;2023-02-08T08:33:45;5.80;;;2.47;;
53261;SDS011;39658;51.090;-1.786;2023-02-08T08:36:13;5.40;;;2.60;;
53261;SDS011;39658;51.090;-1.786;2023-02-08T08:38:40;5.68;;;2.70;;
53261;SDS011;39658;51.090;-1.786;2023-02-08T08:41:09;6.05;;;2.67;;
53261;SDS011;39658;51.090;-1.786;2023-02-08T08:43:38;6.10;;;2.40;;
53261;SDS011;39658;51.090;-1.786;2023-02-08T08:46:06;5.47;;;2.47;;
53261;SDS011;39658;51.090;-1.786;2023-02-08T08:48:33;5.40;;;2.50;;
53261;SDS011;39658;51.090;-1.786;2023-02-08T08:51:00;5.95;;;2.70;;
53261;SDS011;39658;51.090;-1.786;2023-02-08T08:53:27;9.48;;;3.45;;
53261;SDS011;39658;51.090;-1.786;2023-02-08T08:55:54;9.60;;;3.33;;
53261;SDS011;39658;51.090;-1.786;2023-02-08T08:58:22;14.00;;;3.72;;
53261;SDS011;39658;51.090;-1.786;2023-02-08T09:00:49;12.63;;;4.20;;
53261;SDS011;39658;51.090;-1.786;2023-02-08T09:03:16;11.27;;;4.50;;
53261;SDS011;39658;51.090;-1.786;2023-02-08T09:05:42;13.57;;;4.60;;
53261;SDS011;39658;51.090;-1.786;2023-02-08T09:08:09;13.55;;;5.07;;
53261;SDS011;39658;51.090;-1.786;2023-02-08T09:10:37;14.38;;;4.57;;
53261;SDS011;39658;51.090;-1.786;2023-02-08T09:13:04;9.30;;;4.10;;
53261;SDS011;39658;51.090;-1.786;2023-02-08T09:15:33;9.50;;;4.60;;
53261;SDS011;39658;51.090;-1.786;2023-02-08T09:18:03;13.55;;;4.70;;
53261;SDS011;39658;51.090;-1.786;2023-02-08T09:20:30;13.05;;;4.43;;
53261;SDS011;39658;51.090;-1.786;2023-02-08T09:22:57;10.82;;;3.95;;
53261;SDS011;39658;51.090;-1.786;2023-02-08T09:25:24;8.82;;;4.40;;
53261;SDS011;39658;51.090;-1.786;2023-02-08T09:27:51;11.32;;;4.18;;
53261;SDS011;39658;51.090;-1.786;2023-02-08T09:30:18;11.18;;;4.40;;
53261;SDS011;39658;51.090;-1.786;2023-02-08T09:32:46;12.30;;;4.43;;
53261;SDS011;39658;51.090;-1.786;2023-02-08T09:35:13;9.85;;;4.25;;
53261;SDS011;39658;51.090;-1.786;2023-02-08T09:37:40;10.10;;;4.05;;
53261;SDS011;39658;51.090;-1.786;2023-02-08T09:40:10;9.68;;;4.00;;
53261;SDS011;39658;51.090;-1.786;2023-02-08T09:42:46;10.50;;;4.00;;
53261;SDS011;39658;51.090;-1.786;2023-02-08T09:45:25;11.02;;;4.30;;
53261;SDS011;39658;51.090;-1.786;2023-02-08T09:48:05;7.95;;;4.35;;
53261;SDS011;39658;51.090;-1.786;2023-02-08T09:50:42;8.05;;;3.70;;
53261;SDS011;39658;51.090;-1.786;2023-02-08T09:53:12;8.30;;;3.90;;
53261;SDS011;39658;51.090;-1.786;2023-02-08T09:55:44;10.43;;;4.38;;
53261;SDS011;39658;51.090;-1.786;2023-02-08T09:58:18;8.35;;;4.05;;
53261;SDS011;39658;51.090;-1.786;2023-02-08T10:00:49;10.10;;;4.07;;
53261;SDS011;39658;51.090;-1.786;2023-02-08T10:03:22;8.38;;;3.80;;
53261;SDS011;39658;51.090;-1.786;2023-02-08T10:05:54;8.80;;;4.13;;
53261;SDS011;39658;51.090;-1.786;2023-02-08T10:08:21;7.88;;;3.90;;
53261;SDS011;39658;51.090;-1.786;2023-02-08T10:10:50;7.78;;;3.67;;
53261;SDS011;39658;51.090;-1.786;2023-02-08T10:13:28;6.70;;;3.65;;
53261;SDS011;39658;51.090;-1.786;2023-02-08T14:01:19;16.27;;;4.93;;
53261;SDS011;39658;51.090;-1.786;2023-02-08T14:07:03;18.25;;;5.10;;
53261;SDS011;39658;51.090;-1.786;2023-02-08T14:09:42;13.98;;;4.40;;
53261;SDS011;39658;51.090;-1.786;2023-02-08T14:12:15;14.40;;;4.32;;
53261;SDS011;39658;51.090;-1.786;2023-02-08T14:17:53;16.40;;;4.20;;
53261;SDS011;39658;51.090;-1.786;2023-02-08T14:20:24;14.32;;;4.28;;
53261;SDS011;39658;51.090;-1.786;2023-02-08T14:22:54;12.07;;;4.63;;
53261;SDS011;39658;51.090;-1.786;2023-02-08T14:25:24;11.50;;;4.32;;
53261;SDS011;39658;51.090;-1.786;2023-02-08T14:27:53;16.73;;;4.20;;
53261;SDS011;39658;51.090;-1.786;2023-02-08T14:30:23;11.98;;;4.10;;
53261;SDS011;39658;51.090;-1.786;2023-02-08T14:33:07;13.95;;;3.80;;
53261;SDS011;39658;51.090;-1.786;2023-02-08T14:35:38;10.50;;;4.40;;
53261;SDS011;39658;51.090;-1.786;2023-02-08T14:53:42;15.60;;;4.30;;
53261;SDS011;39658;51.090;-1.786;2023-02-08T14:56:13;14.20;;;4.00;;
53261;SDS011;39658;51.090;-1.786;2023-02-08T14:58:44;11.43;;;4.43;;
53261;SDS011;39658;51.090;-1.786;2023-02-08T15:01:16;10.05;;;4.00;;
53261;SDS011;39658;51.090;-1.786;2023-02-08T15:03:45;10.73;;;3.75;;
53261;SDS011;39658;51.090;-1.786;2023-02-08T15:06:22;12.20;;;4.25;;
53261;SDS011;39658;51.090;-1.786;2023-02-08T15:09:12;11.07;;;4.68;;
53261;SDS011;39658;51.090;-1.786;2023-02-08T15:11:41;17.08;;;4.22;;
53261;SDS011;39658;51.090;-1.786;2023-02-08T15:14:15;10.00;;;3.63;;
53261;SDS011;39658;51.090;-1.786;2023-02-08T15:16:45;9.25;;;3.90;;
53261;SDS011;39658;51.090;-1.786;2023-02-08T15:19:16;8.43;;;3.83;;
53261;SDS011;39658;51.090;-1.786;2023-02-08T15:21:49;14.35;;;3.72;;
53261;SDS011;39658;51.090;-1.786;2023-02-08T15:24:17;10.05;;;4.30;;
53261;SDS011;39658;51.090;-1.786;2023-02-08T15:26:47;11.70;;;4.32;;
53261;SDS011;39658;51.090;-1.786;2023-02-08T15:29:20;10.60;;;4.10;;
53261;SDS011;39658;51.090;-1.786;2023-02-08T15:31:48;12.43;;;4.32;;
53261;SDS011;39658;51.090;-1.786;2023-02-08T15:34:16;12.70;;;4.50;;
53261;SDS011;39658;51.090;-1.786;2023-02-08T15:36:45;11.20;;;3.83;;
53261;SDS011;39658;51.090;-1.786;2023-02-08T15:39:23;8.13;;;3.83;;
53261;SDS011;39658;51.090;-1.786;2023-02-08T15:41:56;11.65;;;3.80;;
53261;SDS011;39658;51.090;-1.786;2023-02-08T15:44:24;10.77;;;4.15;;
53261;SDS011;39658;51.090;-1.786;2023-02-08T15:46:54;8.85;;;3.55;;
53261;SDS011;39658;51.090;-1.786;2023-02-08T15:49:26;9.77;;;4.20;;
53261;SDS011;39658;51.090;-1.786;2023-02-08T15:51:57;9.02;;;3.47;;
53261;SDS011;39658;51.090;-1.786;2023-02-08T15:54:24;8.77;;;3.58;;
53261;SDS011;39658;51.090;-1.786;2023-02-08T15:56:52;9.20;;;4.07;;
53261;SDS011;39658;51.090;-1.786;2023-02-08T15:59:23;11.23;;;3.80;;
53261;SDS011;39658;51.090;-1.786;2023-02-08T16:01:52;10.95;;;3.92;;
53261;SDS011;39658;51.090;-1.786;2023-02-08T16:04:20;9.63;;;3.63;;
53261;SDS011;39658;51.090;-1.786;2023-02-08T16:06:49;7.82;;;3.30;;
53261;SDS011;39658;51.090;-1.786;2023-02-08T16:09:20;9.52;;;4.20;;
53261;SDS011;39658;51.090;-1.786;2023-02-08T16:11:51;7.57;;;3.60;;
53261;SDS011;39658;51.090;-1.786;2023-02-08T16:14:20;8.10;;;3.58;;
53261;SDS011;39658;51.090;-1.786;2023-02-08T16:16:50;8.20;;;3.50;;
53261;SDS011;39658;51.090;-1.786;2023-02-08T16:19:25;10.25;;;3.53;;
53261;SDS011;39658;51.090;-1.786;2023-02-08T16:21:53;8.18;;;3.45;;
53261;SDS011;39658;51.090;-1.786;2023-02-08T16:24:24;8.45;;;3.78;;
53261;SDS011;39658;51.090;-1.786;2023-02-08T16:26:56;7.97;;;3.30;;
53261;SDS011;39658;51.090;-1.786;2023-02-08T16:29:28;8.05;;;3.33;;
53261;SDS011;39658;51.090;-1.786;2023-02-08T16:32:00;8.13;;;3.38;;
53261;SDS011;39658;51.090;-1.786;2023-02-08T16:34:31;7.40;;;3.35;;
53261;SDS011;39658;51.090;-1.786;2023-02-08T16:36:59;7.35;;;3.17;;
53261;SDS011;39658;51.090;-1.786;2023-02-08T16:42:23;8.07;;;3.17;;
53261;SDS011;39658;51.090;-1.786;2023-02-08T16:47:43;9.85;;;3.20;;
53261;SDS011;39658;51.090;-1.786;2023-02-08T16:50:13;8.13;;;3.25;;
53261;SDS011;39658;51.090;-1.786;2023-02-08T16:52:41;8.52;;;3.38;;
53261;SDS011;39658;51.090;-1.786;2023-02-08T16:55:15;7.93;;;3.13;;
53261;SDS011;39658;51.090;-1.786;2023-02-08T16:57:44;8.57;;;3.10;;
53261;SDS011;39658;51.090;-1.786;2023-02-08T17:00:13;7.35;;;2.90;;
53261;SDS011;39658;51.090;-1.786;2023-02-08T17:02:42;6.70;;;2.70;;
53261;SDS011;39658;51.090;-1.786;2023-02-08T17:05:09;6.63;;;2.83;;
53261;SDS011;39658;51.090;-1.786;2023-02-08T17:07:35;6.82;;;2.95;;
53261;SDS011;39658;51.090;-1.786;2023-02-08T17:10:03;6.57;;;2.80;;
53261;SDS011;39658;51.090;-1.786;2023-02-08T17:12:32;6.38;;;2.72;;
53261;SDS011;39658;51.090;-1.786;2023-02-08T17:14:58;9.63;;;3.00;;
53261;SDS011;39658;51.090;-1.786;2023-02-08T17:17:25;7.88;;;2.65;;
53261;SDS011;39658;51.090;-1.786;2023-02-08T17:19:52;6.70;;;2.90;;
53261;SDS011;39658;51.090;-1.786;2023-02-08T17:22:19;8.32;;;3.03;;
53261;SDS011;39658;51.090;-1.786;2023-02-08T17:24:45;6.40;;;2.97;;
53261;SDS011;39658;51.090;-1.786;2023-02-08T17:27:12;6.85;;;2.75;;
53261;SDS011;39658;51.090;-1.786;2023-02-08T17:29:41;7.30;;;3.10;;
53261;SDS011;39658;51.090;-1.786;2023-02-08T17:32:08;6.10;;;2.70;;
53261;SDS011;39658;51.090;-1.786;2023-02-08T17:34:35;7.78;;;2.88;;
53261;SDS011;39658;51.090;-1.786;2023-02-08T17:37:03;6.60;;;2.50;;
53261;SDS011;39658;51.090;-1.786;2023-02-08T17:39:30;6.45;;;2.90;;
53261;SDS011;39658;51.090;-1.786;2023-02-08T17:41:57;5.82;;;2.80;;
53261;SDS011;39658;51.090;-1.786;2023-02-08T17:44:24;5.47;;;2.40;;
53261;SDS011;39658;51.090;-1.786;2023-02-08T17:46:52;6.03;;;2.80;;
53261;SDS011;39658;51.090;-1.786;2023-02-08T17:49:19;7.28;;;2.80;;
53261;SDS011;39658;51.090;-1.786;2023-02-08T17:51:46;6.43;;;2.60;;
53261;SDS011;39658;51.090;-1.786;2023-02-08T17:54:13;6.00;;;2.60;;
53261;SDS011;39658;51.090;-1.786;2023-02-08T17:56:39;7.07;;;2.70;;
53261;SDS011;39658;51.090;-1.786;2023-02-08T17:59:06;14.13;;;3.00;;
53261;SDS011;39658;51.090;-1.786;2023-02-08T18:01:33;8.55;;;3.20;;
53261;SDS011;39658;51.090;-1.786;2023-02-08T18:04:03;8.13;;;2.95;;
53261;SDS011;39658;51.090;-1.786;2023-02-08T18:06:30;9.23;;;3.55;;
53261;SDS011;39658;51.090;-1.786;2023-02-08T18:08:57;8.43;;;3.47;;
53261;SDS011;39658;51.090;-1.786;2023-02-08T18:11:24;10.93;;;3.63;;
53261;SDS011;39658;51.090;-1.786;2023-02-08T18:13:51;8.98;;;3.33;;
53261;SDS011;39658;51.090;-1.786;2023-02-08T18:16:19;11.82;;;3.38;;
53261;SDS011;39658;51.090;-1.786;2023-02-08T18:18:47;8.20;;;3.45;;
53261;SDS011;39658;51.090;-1.786;2023-02-08T18:21:16;10.50;;;3.17;;
53261;SDS011;39658;51.090;-1.786;2023-02-08T18:23:44;6.80;;;3.05;;
53261;SDS011;39658;51.090;-1.786;2023-02-08T18:26:12;14.75;;;3.22;;
53261;SDS011;39658;51.090;-1.786;2023-02-08T18:28:40;9.27;;;3.15;;
53261;SDS011;39658;51.090;-1.786;2023-02-08T18:31:08;8.85;;;3.20;;
53261;SDS011;39658;51.090;-1.786;2023-02-08T18:33:38;8.80;;;3.30;;
53261;SDS011;39658;51.090;-1.786;2023-02-08T18:36:06;7.85;;;3.15;;
53261;SDS011;39658;51.090;-1.786;2023-02-08T18:38:37;9.05;;;3.20;;
53261;SDS011;39658;51.090;-1.786;2023-02-08T18:41:07;7.55;;;3.10;;
53261;SDS011;39658;51.090;-1.786;2023-02-08T18:43:35;6.93;;;2.90;;
53261;SDS011;39658;51.090;-1.786;2023-02-08T18:46:02;10.57;;;3.00;;
53261;SDS011;39658;51.090;-1.786;2023-02-08T18:48:31;7.10;;;2.70;;
53261;SDS011;39658;51.090;-1.786;2023-02-08T18:50:58;6.53;;;2.80;;
53261;SDS011;39658;51.090;-1.786;2023-02-08T18:53:27;7.43;;;2.92;;
53261;SDS011;39658;51.090;-1.786;2023-02-08T18:55:58;9.20;;;2.92;;
53261;SDS011;39658;51.090;-1.786;2023-02-08T18:58:26;6.32;;;2.80;;